Time;durP1;ratioP1;P1;durP2;ratioP2;P2;SDS_P1;SDS_P2;PMS_P1;PMS_P2;Temp;Humidity;BMP_temperature;BMP_pressure;BME280_temperature;BME280_humidity;BME280_pressure;Samples;Min_cycle;Max_cycle;Signal;HPM_P1;HPM_P2
2021/05/24 00:01:21;;;;;;;2.97;2.20;;;11.30;99.90;;;;;;5094567;28;20251;-39
2021/05/24 00:03:49;;;;;;;3.40;2.33;;;11.30;99.90;;;;;;5094633;28;20242;-39
2021/05/24 00:06:17;;;;;;;3.45;2.63;;;11.30;99.90;;;;;;5094556;28;20303;-38
2021/05/24 00:08:44;;;;;;;4.63;2.83;;;11.40;99.90;;;;;;5094255;28;20230;-39
2021/05/24 00:11:12;;;;;;;2.17;1.98;;;11.30;99.90;;;;;;5094845;28;20230;-40
2021/05/24 00:13:45;;;;;;;2.65;2.42;;;11.30;99.90;;;;;;5094338;28;20574;-40
2021/05/24 00:16:16;;;;;;;8.38;2.10;;;11.30;99.90;;;;;;5094522;28;20259;-42
2021/05/24 00:18:46;;;;;;;2.63;2.42;;;11.30;99.90;;;;;;5094295;28;20321;-41
2021/05/24 00:21:14;;;;;;;2.78;2.47;;;11.30;99.90;;;;;;5094196;28;20230;-38
2021/05/24 00:23:42;;;;;;;2.47;2.13;;;11.30;99.90;;;;;;5094273;28;20211;-38
2021/05/24 00:26:10;;;;;;;2.60;2.40;;;11.30;99.90;;;;;;5094170;28;20783;-38
2021/05/24 00:28:38;;;;;;;4.07;2.58;;;11.30;99.90;;;;;;5093856;28;20203;-39
2021/05/24 00:31:06;;;;;;;3.22;2.15;;;11.30;99.90;;;;;;5094150;28;20238;-39
2021/05/24 00:33:34;;;;;;;2.03;1.58;;;11.30;99.90;;;;;;5094156;28;20263;-39
2021/05/24 00:36:01;;;;;;;3.15;1.90;;;11.30;99.90;;;;;;5094350;28;20285;-38
2021/05/24 00:38:30;;;;;;;2.33;2.03;;;11.20;99.90;;;;;;5094144;28;20267;-38
2021/05/24 00:40:57;;;;;;;1.75;1.63;;;11.30;99.90;;;;;;5094131;28;20238;-40
2021/05/24 00:43:25;;;;;;;1.95;1.80;;;11.20;99.90;;;;;;5093970;28;20237;-41
2021/05/24 00:45:52;;;;;;;1.67;1.58;;;11.20;99.90;;;;;;5093776;28;20269;-39
2021/05/24 00:48:20;;;;;;;1.95;1.65;;;11.20;99.90;;;;;;5093764;28;20206;-38
2021/05/24 00:50:47;;;;;;;1.75;1.65;;;11.20;99.90;;;;;;5093617;28;20676;-38
2021/05/24 00:53:15;;;;;;;2.78;2.45;;;11.10;99.90;;;;;;5093758;28;20657;-38
2021/05/24 00:55:43;;;;;;;2.63;1.80;;;11.10;99.90;;;;;;5093770;28;20293;-39
2021/05/24 00:58:11;;;;;;;3.60;2.85;;;11.10;99.90;;;;;;5093645;28;20313;-39
2021/05/24 01:00:40;;;;;;;4.03;1.85;;;11.00;99.90;;;;;;5093532;28;20217;-38
2021/05/24 01:03:10;;;;;;;4.70;1.92;;;11.00;99.90;;;;;;5093869;28;20371;-38
2021/05/24 01:05:39;;;;;;;2.03;1.70;;;11.00;99.90;;;;;;5093642;28;20283;-37
2021/05/24 01:08:08;;;;;;;2.05;1.85;;;11.00;99.90;;;;;;5093362;28;20604;-38
2021/05/24 01:10:35;;;;;;;1.63;1.50;;;11.00;99.90;;;;;;5093248;28;20249;-38
2021/05/24 01:13:06;;;;;;;3.35;2.33;;;10.90;99.90;;;;;;5093332;28;20635;-39
2021/05/24 01:15:34;;;;;;;2.13;1.95;;;10.90;99.90;;;;;;5093613;28;20211;-38
2021/05/24 01:18:02;;;;;;;3.03;1.88;;;10.90;99.90;;;;;;5093158;28;20293;-39
2021/05/24 01:20:29;;;;;;;2.22;2.00;;;10.90;99.90;;;;;;5093140;28;20256;-39
2021/05/24 01:23:07;;;;;;;3.83;2.22;;;10.90;99.90;;;;;;5093239;28;20294;-38
2021/05/24 01:25:37;;;;;;;2.85;1.92;;;10.90;99.90;;;;;;5093042;28;20254;-38
2021/05/24 01:28:06;;;;;;;2.10;1.73;;;10.80;99.90;;;;;;5093126;28;20246;-38
2021/05/24 01:30:35;;;;;;;2.05;1.88;;;10.80;99.90;;;;;;5093072;28;20257;-38
2021/05/24 01:33:04;;;;;;;2.28;2.08;;;10.80;99.90;;;;;;5092958;28;20211;-39
2021/05/24 01:35:32;;;;;;;1.85;1.75;;;10.80;99.90;;;;;;5092897;28;20206;-38
2021/05/24 01:38:01;;;;;;;3.67;2.08;;;10.80;99.90;;;;;;5092949;28;20237;-38
2021/05/24 01:40:28;;;;;;;2.45;2.25;;;10.80;99.90;;;;;;5092860;28;20241;-38
2021/05/24 01:42:57;;;;;;;2.08;1.80;;;10.80;99.90;;;;;;5092890;28;20214;-38
2021/05/24 01:45:25;;;;;;;2.03;1.83;;;10.80;99.90;;;;;;5092657;28;20321;-38
2021/05/24 01:47:54;;;;;;;1.77;1.65;;;10.80;99.90;;;;;;5093025;28;20264;-38
2021/05/24 01:50:22;;;;;;;2.15;1.85;;;10.80;99.90;;;;;;5092730;28;20215;-38
2021/05/24 01:52:50;;;;;;;1.45;1.35;;;10.70;99.90;;;;;;5092661;28;20241;-38
2021/05/24 01:55:19;;;;;;;4.03;1.80;;;10.70;99.90;;;;;;5092810;28;20242;-38
2021/05/24 01:57:46;;;;;;;2.10;1.85;;;10.70;99.90;;;;;;5092681;28;20646;-38
2021/05/24 02:00:16;;;;;;;1.95;1.83;;;10.70;99.90;;;;;;5092724;28;20210;-38
2021/05/24 02:02:45;;;;;;;5.13;1.80;;;10.70;99.90;;;;;;5092445;28;20645;-38
2021/05/24 02:05:14;;;;;;;2.67;1.80;;;10.70;99.90;;;;;;5092206;28;20207;-41
2021/05/24 02:07:43;;;;;;;4.00;2.33;;;10.70;99.90;;;;;;5092686;28;20293;-38
2021/05/24 02:10:13;;;;;;;4.82;3.80;;;10.70;99.90;;;;;;5092293;28;20301;-39
2021/05/24 02:12:41;;;;;;;5.22;4.32;;;10.70;99.90;;;;;;5092531;28;20732;-39
2021/05/24 02:15:11;;;;;;;3.97;2.70;;;10.70;99.90;;;;;;5092405;28;20206;-39
2021/05/24 02:17:38;;;;;;;3.20;2.03;;;10.70;99.90;;;;;;5092134;28;20688;-38
2021/05/24 02:20:08;;;;;;;2.20;2.03;;;10.70;99.90;;;;;;5092096;28;20280;-37
2021/05/24 02:22:35;;;;;;;2.72;2.10;;;10.70;99.90;;;;;;5091688;28;20229;-38
2021/05/24 02:25:03;;;;;;;2.13;1.92;;;10.70;99.90;;;;;;5092318;28;20213;-39
2021/05/24 02:27:31;;;;;;;2.30;1.80;;;10.70;99.90;;;;;;5092444;28;20223;-38
2021/05/24 02:30:00;;;;;;;2.60;2.28;;;10.70;99.90;;;;;;5092342;28;20203;-39
2021/05/24 02:32:27;;;;;;;3.08;1.92;;;10.60;99.90;;;;;;5092047;28;20661;-39
2021/05/24 02:34:55;;;;;;;4.22;2.33;;;10.60;99.90;;;;;;5092288;28;20238;-39
2021/05/24 02:37:23;;;;;;;3.28;2.55;;;10.60;99.90;;;;;;5092362;28;20633;-39
2021/05/24 02:39:51;;;;;;;2.33;2.17;;;10.60;99.90;;;;;;5092049;28;20669;-40
2021/05/24 02:42:20;;;;;;;2.10;1.90;;;10.60;99.90;;;;;;5092105;28;20211;-39
2021/05/24 02:44:47;;;;;;;2.63;2.28;;;10.50;99.90;;;;;;5092002;28;20686;-41
2021/05/24 02:47:15;;;;;;;2.45;2.25;;;10.50;99.90;;;;;;5091829;28;20273;-39
2021/05/24 02:49:44;;;;;;;3.70;2.42;;;10.50;99.90;;;;;;5091904;28;20681;-40
2021/05/24 02:52:12;;;;;;;2.55;2.28;;;10.40;99.90;;;;;;5091892;28;20611;-40
2021/05/24 02:54:40;;;;;;;2.38;2.13;;;10.40;99.90;;;;;;5091979;28;20316;-39
2021/05/24 02:57:07;;;;;;;2.15;2.05;;;10.30;99.90;;;;;;5091912;28;20203;-40
2021/05/24 02:59:35;;;;;;;7.57;5.15;;;10.30;99.90;;;;;;5091924;28;20311;-39
2021/05/24 03:02:03;;;;;;;44.55;35.55;;;10.20;99.90;;;;;;5091805;28;20689;-39
2021/05/24 03:04:32;;;;;;;13.35;10.88;;;10.20;99.90;;;;;;5092133;28;20206;-39
2021/05/24 03:06:59;;;;;;;4.03;2.75;;;10.10;99.90;;;;;;5091976;28;20260;-39
2021/05/24 03:09:27;;;;;;;2.90;2.08;;;10.10;99.90;;;;;;5091917;28;20203;-40
2021/05/24 03:11:54;;;;;;;2.80;2.30;;;10.10;99.90;;;;;;5091792;28;20218;-40
2021/05/24 03:14:22;;;;;;;3.05;2.03;;;10.20;99.90;;;;;;5092000;28;20286;-40
2021/05/24 03:16:49;;;;;;;1.98;1.83;;;10.20;99.90;;;;;;5091999;28;20198;-40
2021/05/24 03:19:17;;;;;;;1.90;1.75;;;10.30;99.90;;;;;;5091786;28;20392;-39
2021/05/24 03:21:45;;;;;;;3.28;2.00;;;10.30;99.90;;;;;;5091648;28;20210;-40
2021/05/24 03:24:13;;;;;;;2.60;1.88;;;10.30;99.90;;;;;;5091799;28;20207;-39
2021/05/24 03:26:40;;;;;;;3.70;2.30;;;10.40;99.90;;;;;;5091514;28;20633;-38
2021/05/24 03:29:08;;;;;;;2.08;1.88;;;10.40;99.90;;;;;;5091638;28;20242;-38
2021/05/24 03:31:36;;;;;;;2.35;1.77;;;10.40;99.90;;;;;;5091532;28;20242;-38
2021/05/24 03:34:03;;;;;;;1.63;1.52;;;10.40;99.90;;;;;;5093138;28;20264;-39
2021/05/24 03:36:31;;;;;;;1.60;1.50;;;10.40;99.90;;;;;;5095284;28;20602;-38
2021/05/24 03:38:59;;;;;;;2.85;1.77;;;10.40;99.90;;;;;;5095196;28;20207;-38
2021/05/24 03:41:27;;;;;;;2.45;1.60;;;10.50;99.90;;;;;;5095430;28;20234;-39
2021/05/24 03:43:54;;;;;;;2.33;1.60;;;10.50;99.90;;;;;;5095365;28;20250;-38
2021/05/24 03:46:22;;;;;;;2.63;1.45;;;10.50;99.90;;;;;;5095275;28;20262;-38
2021/05/24 03:48:49;;;;;;;1.42;1.23;;;10.50;99.90;;;;;;5095066;28;20699;-41
2021/05/24 03:51:17;;;;;;;1.48;1.38;;;10.50;99.90;;;;;;5094881;28;20261;-39
2021/05/24 03:53:44;;;;;;;2.50;1.50;;;10.50;99.90;;;;;;5094961;28;20293;-41
2021/05/24 03:56:13;;;;;;;3.05;1.77;;;10.50;99.90;;;;;;5095027;28;20302;-39
2021/05/24 03:58:41;;;;;;;2.60;1.70;;;10.60;99.90;;;;;;5094946;28;20218;-39
2021/05/24 04:01:08;;;;;;;3.20;1.35;;;10.60;99.90;;;;;;5094981;28;20226;-39
2021/05/24 04:03:36;;;;;;;1.88;1.55;;;10.60;99.90;;;;;;5094577;28;20664;-39
2021/05/24 04:06:05;;;;;;;2.08;1.98;;;10.60;99.90;;;;;;5094555;28;20754;-39
2021/05/24 04:08:36;;;;;;;2.55;1.88;;;10.70;99.90;;;;;;5094928;28;20294;-39
2021/05/24 04:11:04;;;;;;;2.35;1.90;;;10.70;99.90;;;;;;5094754;28;20238;-39
2021/05/24 04:13:33;;;;;;;2.20;1.67;;;10.70;99.90;;;;;;5094443;28;20569;-40
2021/05/24 04:16:00;;;;;;;1.98;1.70;;;10.80;99.90;;;;;;5094694;28;20256;-38
2021/05/24 04:18:29;;;;;;;1.30;1.20;;;10.80;99.90;;;;;;5094303;28;20281;-39
2021/05/24 04:20:57;;;;;;;1.13;1.10;;;10.80;99.90;;;;;;5094732;28;20267;-40
2021/05/24 04:23:25;;;;;;;1.52;1.42;;;10.80;99.90;;;;;;5094603;28;20207;-40
2021/05/24 04:25:53;;;;;;;1.58;1.30;;;10.90;99.90;;;;;;5094347;28;20289;-40
2021/05/24 04:28:20;;;;;;;1.55;1.45;;;11.00;99.90;;;;;;5094372;28;20306;-40
2021/05/24 04:30:49;;;;;;;1.30;1.20;;;11.00;99.90;;;;;;5094256;28;20255;-40
2021/05/24 04:33:16;;;;;;;1.98;1.40;;;11.00;99.90;;;;;;5094082;28;20263;-40
2021/05/24 04:35:44;;;;;;;1.77;1.63;;;11.00;99.90;;;;;;5094231;28;20569;-40
2021/05/24 04:38:11;;;;;;;1.40;1.30;;;11.00;99.90;;;;;;5094081;28;20666;-40
2021/05/24 04:40:39;;;;;;;2.17;1.13;;;11.00;99.90;;;;;;5094166;28;20697;-40
2021/05/24 04:43:06;;;;;;;2.13;1.92;;;11.00;99.90;;;;;;5094031;28;20238;-40
2021/05/24 04:45:34;;;;;;;2.45;2.00;;;11.10;99.90;;;;;;5093227;28;20342;-39
2021/05/24 04:48:02;;;;;;;3.40;2.22;;;11.20;99.90;;;;;;5093899;28;20266;-39
2021/05/24 04:50:30;;;;;;;2.70;1.90;;;11.20;99.90;;;;;;5093782;28;20211;-39
2021/05/24 04:52:57;;;;;;;1.95;1.70;;;11.30;99.90;;;;;;5093765;28;20263;-39
2021/05/24 04:55:25;;;;;;;1.70;1.60;;;11.40;99.90;;;;;;5093543;28;20297;-39
2021/05/24 04:57:52;;;;;;;3.17;1.88;;;11.40;99.90;;;;;;5093910;28;20625;-39
2021/05/24 05:00:21;;;;;;;1.70;1.60;;;11.40;99.90;;;;;;5093778;28;20211;-39
2021/05/24 05:02:48;;;;;;;2.40;1.38;;;11.40;99.90;;;;;;5094017;28;20237;-40
2021/05/24 05:05:17;;;;;;;1.45;1.33;;;11.40;99.90;;;;;;5093876;28;20214;-39
2021/05/24 05:07:45;;;;;;;2.67;1.70;;;11.50;99.90;;;;;;5093365;28;20226;-39
2021/05/24 05:10:12;;;;;;;1.85;1.70;;;11.60;99.90;;;;;;5093401;28;20634;-40
2021/05/24 05:12:40;;;;;;;3.90;3.05;;;11.60;99.90;;;;;;5093104;28;20673;-39
2021/05/24 05:15:08;;;;;;;2.67;2.10;;;11.70;99.90;;;;;;5093465;28;20293;-38
2021/05/24 05:17:36;;;;;;;1.98;1.77;;;11.80;99.90;;;;;;5093605;28;20230;-40
2021/05/24 05:20:05;;;;;;;1.50;1.40;;;11.80;99.90;;;;;;5093356;28;20302;-40
2021/05/24 05:22:34;;;;;;;3.47;1.35;;;11.80;99.90;;;;;;5093334;28;20663;-40
2021/05/24 05:25:01;;;;;;;1.35;1.20;;;11.90;99.90;;;;;;5093329;28;20203;-40
2021/05/24 05:27:29;;;;;;;1.60;1.50;;;11.90;99.90;;;;;;5093162;28;20226;-41
2021/05/24 05:29:57;;;;;;;1.67;0.90;;;12.00;99.90;;;;;;5093223;28;20301;-39
2021/05/24 05:32:25;;;;;;;1.40;1.15;;;12.10;99.90;;;;;;5093201;28;20198;-40
2021/05/24 05:34:52;;;;;;;1.08;1.00;;;12.20;99.90;;;;;;5093125;28;20752;-39
2021/05/24 05:37:21;;;;;;;1.08;1.00;;;12.30;99.90;;;;;;5093183;28;20276;-40
2021/05/24 05:39:53;;;;;;;2.97;1.05;;;12.40;99.90;;;;;;5092963;28;20465;-39
2021/05/24 05:42:21;;;;;;;1.35;1.25;;;12.40;99.90;;;;;;5093213;28;20252;-39
2021/05/24 05:44:49;;;;;;;1.17;0.98;;;12.40;99.90;;;;;;5093158;28;20250;-44
2021/05/24 05:47:21;;;;;;;1.30;1.20;;;12.40;99.90;;;;;;5092894;28;20626;-41
2021/05/24 05:49:49;;;;;;;1.63;1.35;;;12.40;99.90;;;;;;5092901;28;20213;-41
2021/05/24 05:52:18;;;;;;;2.22;1.58;;;12.40;99.90;;;;;;5092810;28;20210;-41
2021/05/24 05:54:46;;;;;;;1.65;1.55;;;12.40;99.90;;;;;;5092501;28;20210;-41
2021/05/24 05:57:15;;;;;;;2.67;2.03;;;12.30;99.90;;;;;;5091552;28;20207;-41
2021/05/24 05:59:42;;;;;;;3.85;1.75;;;12.30;99.90;;;;;;5092550;28;20257;-40
2021/05/24 06:02:10;;;;;;;2.78;2.22;;;12.40;99.90;;;;;;5095529;28;20293;-43
2021/05/24 06:04:37;;;;;;;1.50;1.38;;;12.50;99.90;;;;;;5092618;28;20301;-40
2021/05/24 06:07:05;;;;;;;1.48;1.38;;;12.50;99.90;;;;;;5092424;28;20320;-41
2021/05/24 06:09:33;;;;;;;2.38;2.10;;;12.60;99.90;;;;;;5092668;28;20202;-40
2021/05/24 06:12:07;;;;;;;2.38;2.17;;;12.70;99.90;;;;;;5092708;28;20202;-40
2021/05/24 06:14:35;;;;;;;1.92;1.58;;;12.80;99.90;;;;;;5092216;28;20730;-39
2021/05/24 06:17:03;;;;;;;1.20;1.10;;;12.80;99.90;;;;;;5092742;28;20203;-39
2021/05/24 06:19:30;;;;;;;2.17;1.55;;;13.00;99.90;;;;;;5092116;28;20265;-41
2021/05/24 06:21:58;;;;;;;2.25;1.67;;;13.00;99.90;;;;;;5092210;28;20242;-40
2021/05/24 06:24:25;;;;;;;2.65;1.67;;;13.10;99.90;;;;;;5092480;28;20580;-40
2021/05/24 06:26:53;;;;;;;3.38;1.63;;;13.20;99.90;;;;;;5092307;28;20254;-40
2021/05/24 06:29:23;;;;;;;2.05;1.83;;;13.20;99.90;;;;;;5092070;28;20203;-41
2021/05/24 06:31:53;;;;;;;3.10;1.75;;;13.30;99.90;;;;;;5092174;28;20202;-39
2021/05/24 06:34:20;;;;;;;3.20;1.70;;;13.50;99.90;;;;;;5092318;28;20206;-41
2021/05/24 06:36:48;;;;;;;1.88;1.67;;;13.60;99.80;;;;;;5092376;28;20261;-40
2021/05/24 06:39:17;;;;;;;1.63;1.23;;;13.70;99.60;;;;;;5092302;28;20245;-42
2021/05/24 06:41:45;;;;;;;3.80;1.83;;;13.80;99.30;;;;;;5093873;28;20210;-40
2021/05/24 06:44:12;;;;;;;2.25;1.65;;;13.90;99.10;;;;;;5093114;28;20723;-40
2021/05/24 06:46:40;;;;;;;1.63;1.40;;;14.00;99.00;;;;;;5092310;28;20210;-41
2021/05/24 06:49:09;;;;;;;1.58;1.48;;;14.10;98.90;;;;;;5092563;28;20758;-40
2021/05/24 06:51:36;;;;;;;1.52;1.40;;;14.30;98.60;;;;;;5092460;28;20339;-41
2021/05/24 06:54:04;;;;;;;2.10;1.40;;;14.40;98.20;;;;;;5092260;28;20236;-41
2021/05/24 06:56:35;;;;;;;2.15;1.95;;;14.60;97.90;;;;;;5092181;28;20226;-41
2021/05/24 06:59:03;;;;;;;1.80;1.70;;;14.80;97.70;;;;;;5091922;28;20245;-39
2021/05/24 07:01:30;;;;;;;1.50;1.33;;;14.90;97.40;;;;;;5092225;28;20207;-43
2021/05/24 07:03:58;;;;;;;2.05;1.45;;;15.00;97.20;;;;;;5092327;28;20581;-40
2021/05/24 07:06:26;;;;;;;2.58;1.75;;;15.10;97.00;;;;;;5093084;28;20310;-39
2021/05/24 07:08:55;;;;;;;1.88;1.73;;;15.10;97.00;;;;;;5093563;28;20230;-39
2021/05/24 07:11:23;;;;;;;2.03;1.80;;;15.20;96.90;;;;;;5095816;28;20661;-39
2021/05/24 07:13:51;;;;;;;4.10;2.08;;;15.30;96.70;;;;;;5096240;28;20556;-39
2021/05/24 07:16:19;;;;;;;2.25;1.70;;;15.50;96.50;;;;;;5096212;28;20210;-39
2021/05/24 07:18:46;;;;;;;2.92;1.50;;;15.70;96.50;;;;;;5095886;28;20235;-41
2021/05/24 07:21:14;;;;;;;2.22;1.20;;;15.90;95.90;;;;;;5095883;28;20203;-39
2021/05/24 07:23:43;;;;;;;2.17;1.70;;;16.00;95.60;;;;;;5095805;28;20217;-41
2021/05/24 07:26:10;;;;;;;1.48;1.00;;;16.00;95.20;;;;;;5095603;28;20214;-39
2021/05/24 07:28:38;;;;;;;1.17;1.08;;;16.00;95.50;;;;;;5096906;28;20222;-39
2021/05/24 07:31:05;;;;;;;1.95;1.45;;;16.00;95.10;;;;;;5095887;28;20245;-39
2021/05/24 07:33:33;;;;;;;1.40;1.05;;;16.10;95.00;;;;;;5095608;28;20215;-39
2021/05/24 07:36:00;;;;;;;1.40;1.23;;;16.20;94.90;;;;;;5095766;28;20234;-39
2021/05/24 07:38:28;;;;;;;2.63;2.42;;;16.30;94.80;;;;;;5095477;28;20287;-41
2021/05/24 07:40:56;;;;;;;1.50;1.33;;;16.30;94.70;;;;;;5095770;28;20635;-39
2021/05/24 07:43:24;;;;;;;1.48;1.27;;;16.40;94.50;;;;;;5095603;28;20248;-39
2021/05/24 07:45:51;;;;;;;6.40;3.65;;;16.40;94.40;;;;;;5095114;28;20749;-38
2021/05/24 07:48:19;;;;;;;1.75;1.55;;;16.40;94.50;;;;;;5095142;28;20662;-39
2021/05/24 07:50:46;;;;;;;2.40;1.80;;;16.30;94.50;;;;;;5095375;28;20238;-38
2021/05/24 07:53:14;;;;;;;1.73;1.63;;;16.40;94.50;;;;;;5095112;28;20298;-43
2021/05/24 07:55:42;;;;;;;3.15;2.70;;;16.50;94.40;;;;;;5095318;28;20202;-38
2021/05/24 07:58:10;;;;;;;1.98;1.25;;;16.70;94.20;;;;;;5094971;28;20238;-40
2021/05/24 08:00:37;;;;;;;2.47;1.83;;;16.80;94.00;;;;;;5095341;28;20252;-40
2021/05/24 08:03:05;;;;;;;1.25;1.08;;;17.00;93.80;;;;;;5094662;28;20570;-40
2021/05/24 08:05:33;;;;;;;2.17;1.35;;;17.10;93.70;;;;;;5095318;28;20667;-41
2021/05/24 08:08:01;;;;;;;1.45;1.35;;;17.10;93.40;;;;;;5094707;28;20222;-39
2021/05/24 08:10:29;;;;;;;3.40;1.65;;;17.10;93.20;;;;;;5094572;28;20628;-39
2021/05/24 08:12:56;;;;;;;1.48;1.38;;;17.10;93.00;;;;;;5094381;28;20324;-38
2021/05/24 08:15:30;;;;;;;1.33;1.15;;;17.10;92.80;;;;;;5094484;28;20210;-42
2021/05/24 08:17:59;;;;;;;2.42;1.15;;;17.20;92.60;;;;;;5094395;28;20272;-40
2021/05/24 08:20:28;;;;;;;1.52;1.42;;;17.20;92.50;;;;;;5097957;28;20202;-46
2021/05/24 08:22:56;;;;;;;1.63;1.52;;;17.20;92.40;;;;;;5099859;28;20211;-42
2021/05/24 08:25:24;;;;;;;2.10;1.10;;;17.10;92.40;;;;;;5098660;28;20202;-40
2021/05/24 08:27:52;;;;;;;0.80;0.80;;;17.10;92.40;;;;;;5098377;28;20231;-39
2021/05/24 08:30:31;;;;;;;1.83;1.70;;;17.10;92.30;;;;;;5095751;28;20248;-39
2021/05/24 08:32:58;;;;;;;1.83;1.23;;;17.10;92.30;;;;;;5095052;28;20256;-40
2021/05/24 08:35:26;;;;;;;4.20;1.60;;;17.10;92.40;;;;;;5093910;28;20297;-42
2021/05/24 08:37:53;;;;;;;1.40;1.30;;;17.10;92.50;;;;;;5093876;28;20269;-41
2021/05/24 08:40:22;;;;;;;1.45;1.35;;;17.10;92.70;;;;;;5093588;28;20207;-40
2021/05/24 08:42:50;;;;;;;2.22;1.40;;;17.10;92.50;;;;;;5093852;28;20249;-40
2021/05/24 08:45:18;;;;;;;1.15;0.90;;;17.10;92.50;;;;;;5093566;28;20238;-41
2021/05/24 08:47:48;;;;;;;1.10;1.00;;;17.10;92.60;;;;;;5093876;28;20258;-40
2021/05/24 08:50:17;;;;;;;2.35;2.13;;;17.10;92.60;;;;;;5093919;28;20214;-40
2021/05/24 08:52:44;;;;;;;1.45;1.33;;;17.10;92.50;;;;;;5094562;28;20463;-42
2021/05/24 08:55:13;;;;;;;1.90;1.80;;;17.10;92.60;;;;;;5093828;28;20259;-40
2021/05/24 08:57:42;;;;;;;1.67;1.00;;;17.00;92.70;;;;;;5093596;28;20691;-41
2021/05/24 09:00:13;;;;;;;2.03;1.20;;;17.00;92.60;;;;;;5093767;28;20665;-39
2021/05/24 09:02:44;;;;;;;1.67;1.42;;;16.90;92.60;;;;;;5094028;28;20711;-40
2021/05/24 09:05:14;;;;;;;1.63;1.33;;;16.90;92.60;;;;;;5093848;28;20207;-44
2021/05/24 09:07:50;;;;;;;1.20;1.10;;;17.00;92.80;;;;;;5093606;28;20273;-41
2021/05/24 09:10:19;;;;;;;1.92;1.63;;;17.20;92.20;;;;;;5094647;28;20202;-42
2021/05/24 09:12:47;;;;;;;1.95;1.50;;;17.40;92.00;;;;;;5093277;28;20293;-40
2021/05/24 09:15:17;;;;;;;1.40;1.30;;;17.60;91.60;;;;;;5093578;28;20234;-41
2021/05/24 09:17:47;;;;;;;1.73;1.35;;;17.70;91.40;;;;;;5093484;28;20567;-41
2021/05/24 09:20:26;;;;;;;1.10;1.10;;;17.80;91.10;;;;;;5093248;28;20323;-40
2021/05/24 09:23:16;;;;;;;1.50;1.40;;;17.90;91.10;;;;;;5093270;28;20269;-40
2021/05/24 09:25:55;;;;;;;2.00;1.90;;;18.00;91.30;;;;;;5093393;28;20267;-41
2021/05/24 09:28:28;;;;;;;1.85;1.52;;;18.00;91.30;;;;;;5093745;28;20317;-43
2021/05/24 09:30:56;;;;;;;4.10;3.70;;;18.10;91.40;;;;;;5093303;28;20213;-41
2021/05/24 09:33:24;;;;;;;2.03;1.65;;;18.20;91.50;;;;;;5093013;28;20362;-42
2021/05/24 09:35:53;;;;;;;2.08;1.20;;;18.40;91.00;;;;;;5093389;28;20218;-40
2021/05/24 09:38:23;;;;;;;1.83;1.40;;;18.60;90.80;;;;;;5093606;28;20202;-42
2021/05/24 09:40:56;;;;;;;1.30;1.20;;;18.70;90.90;;;;;;5093243;28;20245;-42
2021/05/24 09:43:35;;;;;;;2.45;1.48;;;18.70;90.60;;;;;;5092746;28;20737;-42
2021/05/24 09:46:14;;;;;;;1.38;1.27;;;18.70;90.60;;;;;;5092963;28;20302;-43
2021/05/24 09:48:42;;;;;;;1.17;1.08;;;18.70;90.60;;;;;;5092874;28;20234;-44
2021/05/24 09:51:14;;;;;;;2.85;1.85;;;18.70;90.60;;;;;;5092868;28;20726;-42
2021/05/24 09:53:54;;;;;;;2.85;2.03;;;18.70;90.60;;;;;;5092925;28;20326;-41
2021/05/24 09:56:22;;;;;;;1.52;1.42;;;18.80;90.40;;;;;;5092787;28;20279;-41
2021/05/24 09:59:02;;;;;;;1.73;1.48;;;19.10;90.30;;;;;;5092910;28;20210;-42
2021/05/24 10:01:35;;;;;;;2.28;1.40;;;19.20;90.10;;;;;;5094472;28;20297;-42
2021/05/24 10:04:04;;;;;;;1.65;1.40;;;19.30;89.90;;;;;;5093046;28;20207;-41
2021/05/24 10:06:32;;;;;;;2.72;1.20;;;19.40;89.40;;;;;;5092497;28;20253;-41
2021/05/24 10:09:01;;;;;;;1.65;1.20;;;19.40;88.80;;;;;;5092775;28;20226;-41
2021/05/24 10:11:29;;;;;;;4.25;1.75;;;19.50;88.40;;;;;;5092650;28;20256;-41
2021/05/24 10:13:57;;;;;;;1.00;0.90;;;19.60;88.30;;;;;;5093255;28;20241;-41
2021/05/24 10:16:31;;;;;;;1.48;1.20;;;19.50;87.90;;;;;;5092920;28;20218;-42
2021/05/24 10:18:58;;;;;;;1.70;1.30;;;19.50;87.50;;;;;;5092360;28;20234;-41
2021/05/24 10:21:26;;;;;;;1.88;1.52;;;19.50;87.30;;;;;;5092337;28;20628;-41
2021/05/24 10:23:55;;;;;;;1.40;1.08;;;19.60;87.20;;;;;;5092740;28;20301;-41
2021/05/24 10:26:24;;;;;;;1.40;1.17;;;19.70;87.00;;;;;;5092143;28;20577;-41
2021/05/24 10:28:54;;;;;;;1.42;1.15;;;19.70;86.90;;;;;;5092167;28;20636;-40
2021/05/24 10:31:23;;;;;;;2.85;1.10;;;19.70;86.80;;;;;;5092315;28;20210;-39
2021/05/24 10:33:52;;;;;;;1.75;1.45;;;19.80;86.20;;;;;;5092498;28;20242;-40
2021/05/24 10:36:22;;;;;;;2.25;1.20;;;19.70;86.20;;;;;;5092271;28;20297;-39
2021/05/24 10:39:06;;;;;;;2.30;1.45;;;19.70;86.40;;;;;;5092276;28;20303;-40
2021/05/24 10:41:51;;;;;;;1.33;1.00;;;19.70;86.30;;;;;;5092159;28;20252;-41
2021/05/24 10:44:21;;;;;;;1.20;0.93;;;19.80;86.00;;;;;;5091754;28;20245;-39
2021/05/24 10:46:50;;;;;;;5.35;1.50;;;19.70;86.20;;;;;;5092290;28;20210;-42
2021/05/24 10:49:23;;;;;;;2.28;1.80;;;19.90;86.00;;;;;;5092269;28;20657;-42
2021/05/24 10:52:09;;;;;;;1.35;1.25;;;20.00;85.70;;;;;;5091802;28;20334;-41
2021/05/24 10:54:42;;;;;;;2.35;1.45;;;20.10;85.40;;;;;;5091961;28;20656;-41
2021/05/24 10:57:18;;;;;;;1.38;1.10;;;20.30;84.70;;;;;;5092266;28;20282;-41
2021/05/24 10:59:57;;;;;;;1.75;1.30;;;20.40;84.30;;;;;;5092461;28;20629;-49
2021/05/24 11:02:30;;;;;;;1.30;1.20;;;20.40;84.10;;;;;;5092082;28;20251;-42
2021/05/24 11:05:01;;;;;;;1.50;1.40;;;20.50;83.70;;;;;;5091871;28;20634;-39
2021/05/24 11:07:31;;;;;;;1.83;1.42;;;20.50;83.50;;;;;;5091934;28;20207;-39
2021/05/24 11:10:24;;;;;;;1.55;1.40;;;20.60;83.20;;;;;;5091937;28;20227;-41
2021/05/24 11:12:54;;;;;;;2.92;2.10;;;20.70;82.90;;;;;;5091889;28;20726;-41
2021/05/24 11:15:24;;;;;;;2.97;1.85;;;20.80;82.80;;;;;;5091692;28;20244;-41
2021/05/24 11:18:16;;;;;;;2.45;1.40;;;20.80;82.50;;;;;;5092079;28;20260;-41
2021/05/24 11:20:48;;;;;;;1.73;1.58;;;20.80;82.30;;;;;;5091539;28;20621;-41
2021/05/24 11:23:34;;;;;;;2.13;1.92;;;20.80;82.20;;;;;;5091811;28;20264;-41
2021/05/24 11:26:32;;;;;;;2.17;1.88;;;20.90;82.00;;;;;;5091858;28;20203;-42
2021/05/24 11:29:08;;;;;;;1.73;1.63;;;20.80;81.30;;;;;;5091610;28;20290;-42
2021/05/24 11:31:45;;;;;;;2.50;1.85;;;20.80;81.40;;;;;;5092070;28;20638;-42
2021/05/24 11:34:26;;;;;;;1.75;1.65;;;20.80;81.00;;;;;;5091525;28;20245;-41
2021/05/24 11:36:55;;;;;;;1.20;1.10;;;20.90;80.90;;;;;;5091874;28;20238;-41
2021/05/24 11:39:30;;;;;;;2.95;1.17;;;21.00;80.60;;;;;;5092002;28;20218;-41
2021/05/24 11:42:01;;;;;;;3.53;1.90;;;21.30;79.80;;;;;;5091300;28;20694;-43
2021/05/24 11:44:35;;;;;;;2.00;1.67;;;21.40;79.50;;;;;;5091308;28;20210;-40
2021/05/24 11:47:06;;;;;;;1.90;1.70;;;21.50;79.10;;;;;;5091778;28;20275;-40
2021/05/24 11:49:54;;;;;;;3.25;1.83;;;21.70;78.40;;;;;;5091408;28;20279;-40
2021/05/24 11:52:30;;;;;;;2.33;1.17;;;21.90;77.60;;;;;;5091622;28;20312;-40
2021/05/24 11:54:59;;;;;;;3.42;1.70;;;22.00;76.90;;;;;;5091413;28;20199;-40
2021/05/24 11:57:36;;;;;;;1.73;1.40;;;22.00;76.80;;;;;;5095065;28;20214;-41
2021/05/24 12:00:06;;;;;;;2.13;1.20;;;22.00;76.40;;;;;;5094992;28;20260;-41
2021/05/24 12:02:33;;;;;;;2.40;2.20;;;22.00;76.30;;;;;;5095160;28;20230;-43
2021/05/24 12:05:01;;;;;;;1.65;1.10;;;22.00;76.40;;;;;;5094926;28;20271;-41
2021/05/24 12:07:29;;;;;;;2.30;1.10;;;22.00;76.00;;;;;;5094469;28;20314;-40
2021/05/24 12:09:59;;;;;;;2.40;1.40;;;22.00;75.40;;;;;;5094434;28;20713;-45
2021/05/24 12:12:31;;;;;;;1.60;1.50;;;22.00;75.00;;;;;;5094823;28;20210;-41
2021/05/24 12:15:02;;;;;;;1.45;1.05;;;22.00;74.90;;;;;;5094354;28;20218;-43
2021/05/24 12:17:32;;;;;;;2.03;1.45;;;22.00;74.80;;;;;;5094225;28;20202;-41
2021/05/24 12:20:03;;;;;;;3.13;1.58;;;21.90;74.50;;;;;;5093893;28;20273;-40
2021/05/24 12:22:38;;;;;;;2.92;2.72;;;21.90;74.20;;;;;;5094271;28;20214;-41
2021/05/24 12:25:07;;;;;;;2.30;2.10;;;22.00;74.10;;;;;;5094245;28;20297;-41
2021/05/24 12:27:36;;;;;;;2.83;2.35;;;22.00;73.90;;;;;;5094162;28;20774;-42
2021/05/24 12:30:16;;;;;;;1.75;1.50;;;22.00;73.80;;;;;;5094007;28;20673;-41
2021/05/24 12:32:48;;;;;;;1.40;1.30;;;22.00;73.40;;;;;;5094146;28;20290;-43
2021/05/24 12:35:19;;;;;;;1.95;1.40;;;22.00;73.30;;;;;;5094354;28;20289;-42
2021/05/24 12:37:51;;;;;;;2.47;1.85;;;22.00;73.00;;;;;;5094137;28;20207;-42
2021/05/24 12:40:19;;;;;;;2.03;1.33;;;22.00;73.70;;;;;;5093932;28;20230;-43
2021/05/24 12:42:50;;;;;;;3.38;2.88;;;22.00;73.00;;;;;;5093781;28;20676;-39
2021/05/24 12:45:24;;;;;;;2.95;1.55;;;21.90;73.10;;;;;;5094146;28;20203;-44
2021/05/24 12:47:59;;;;;;;2.22;1.45;;;21.80;72.90;;;;;;5094067;28;20206;-43
2021/05/24 12:50:29;;;;;;;1.45;1.33;;;21.70;72.80;;;;;;5094139;28;20227;-42
2021/05/24 12:53:08;;;;;;;1.85;1.33;;;21.80;72.60;;;;;;5094028;28;20232;-42
2021/05/24 12:55:36;;;;;;;2.60;2.28;;;21.80;72.10;;;;;;5093699;28;20572;-43
2021/05/24 12:58:11;;;;;;;2.45;1.92;;;21.80;72.10;;;;;;5093751;28;20238;-44